createdAt,value
2023-01-13T00:00:50.249Z,83.27
2023-01-13T00:03:16.619Z,83.18
2023-01-13T00:05:43.038Z,83.91
2023-01-13T00:08:09.430Z,83.29
2023-01-13T00:10:36.239Z,83.49
2023-01-13T00:13:04.763Z,83.48
2023-01-13T00:15:32.297Z,83.43
2023-01-13T00:17:58.844Z,83.49
2023-01-13T00:20:25.267Z,83.43
2023-01-13T00:22:51.669Z,83.52
2023-01-13T00:25:18.089Z,83.49
2023-01-13T00:27:44.483Z,83.63
2023-01-13T00:30:11.392Z,82.75
2023-01-13T00:32:38.130Z,82.88
2023-01-13T00:35:05.007Z,83.16
2023-01-13T00:37:31.440Z,82.96
2023-01-13T00:39:57.878Z,83.20
2023-01-13T00:42:43.062Z,82.52
2023-01-13T00:45:09.899Z,82.32
2023-01-13T00:47:36.380Z,81.53
2023-01-13T00:50:02.785Z,81.24
2023-01-13T00:52:31.340Z,81.43
2023-01-13T00:54:57.861Z,81.39
2023-01-13T00:57:24.320Z,80.83
2023-01-13T00:59:50.701Z,81.47
2023-01-13T01:02:17.321Z,81.68
2023-01-13T01:04:43.812Z,82.13
2023-01-13T01:07:10.274Z,82.87
2023-01-13T01:09:38.762Z,82.42
2023-01-13T01:12:05.384Z,82.56
2023-01-13T01:14:31.776Z,82.59
2023-01-13T01:16:58.147Z,82.87
2023-01-13T01:19:24.702Z,83.12
2023-01-13T01:21:51.156Z,83.42
2023-01-13T01:24:17.592Z,83.03
2023-01-13T01:26:44.002Z,82.72
2023-01-13T01:29:14.430Z,83.64
2023-01-13T01:31:41.198Z,83.99
2023-01-13T01:34:07.621Z,84.42
2023-01-13T01:36:35.203Z,85.89
2023-01-13T01:39:02.217Z,85.36
2023-01-13T01:41:31.548Z,85.30
2023-01-13T01:44:03.634Z,85.81
2023-01-13T01:46:40.199Z,85.02
2023-01-13T01:49:17.329Z,84.86
2023-01-13T01:51:49.664Z,86.46
2023-01-13T01:54:22.783Z,85.63
2023-01-13T01:56:49.568Z,85.26
2023-01-13T01:59:16.711Z,84.30
2023-01-13T02:01:44.411Z,84.60
2023-01-13T02:04:23.388Z,84.36
2023-01-13T02:06:50.748Z,84.50
2023-01-13T02:09:17.331Z,84.50
2023-01-13T02:12:02.366Z,84.20
2023-01-13T02:14:30.446Z,84.82
2023-01-13T02:17:15.136Z,84.88
2023-01-13T02:19:57.735Z,84.97
2023-01-13T02:22:42.306Z,85.42
2023-01-13T02:25:22.284Z,86.10
2023-01-13T02:28:33.502Z,86.50
2023-01-13T02:31:25.457Z,87.06
2023-01-13T02:34:05.711Z,87.49
2023-01-13T02:36:58.853Z,86.68
2023-01-13T02:39:38.229Z,88.06
2023-01-13T02:42:37.341Z,88.53
2023-01-13T02:45:26.304Z,89.25
2023-01-13T02:47:55.813Z,90.05
2023-01-13T02:50:28.850Z,90.20
2023-01-13T02:53:00.909Z,90.93
2023-01-13T02:55:36.439Z,91.07
2023-01-13T02:58:07.277Z,91.50
2023-01-13T03:00:35.149Z,91.36
2023-01-13T03:03:01.722Z,91.21
2023-01-13T03:05:30.066Z,90.55
2023-01-13T03:07:56.982Z,91.03
2023-01-13T03:10:36.006Z,90.85
2023-01-13T03:13:41.301Z,90.50
2023-01-13T03:16:36.004Z,89.64
2023-01-13T03:19:21.623Z,89.65
2023-01-13T03:22:17.288Z,89.39
2023-01-13T03:25:05.434Z,89.82
2023-01-13T03:27:42.541Z,89.82
2023-01-13T03:30:12.491Z,90.84
2023-01-13T03:32:42.537Z,91.53
2023-01-13T03:35:16.630Z,92.00
2023-01-13T03:37:49.661Z,92.15
2023-01-13T03:40:20.933Z,91.99
2023-01-13T03:43:18.433Z,91.75
2023-01-13T03:45:52.073Z,91.59
2023-01-13T03:48:22.776Z,91.07
2023-01-13T03:50:52.382Z,90.69
2023-01-13T03:53:23.567Z,90.85
2023-01-13T03:55:59.542Z,91.29
2023-01-13T03:58:32.755Z,91.36
2023-01-13T04:01:04.888Z,91.05
2023-01-13T04:03:43.689Z,91.40
2023-01-13T04:06:14.794Z,90.44
2023-01-13T04:08:49.131Z,90.33
2023-01-13T04:11:25.817Z,90.33
2023-01-13T04:13:53.727Z,89.77
2023-01-13T04:16:20.602Z,89.54
2023-01-13T04:18:49.916Z,89.49
2023-01-13T04:21:16.392Z,89.49
2023-01-13T04:23:42.801Z,88.99
2023-01-13T04:26:09.226Z,89.37
2023-01-13T04:28:35.679Z,88.79
2023-01-13T04:31:02.120Z,89.18
2023-01-13T04:33:28.652Z,88.68
2023-01-13T04:35:55.140Z,88.46
2023-01-13T04:38:21.814Z,88.58
2023-01-13T04:40:48.385Z,88.18
2023-01-13T04:43:15.818Z,87.94
2023-01-13T04:45:43.541Z,87.78
2023-01-13T04:48:10.472Z,87.60
2023-01-13T04:50:37.158Z,88.00
2023-01-13T04:53:03.720Z,87.91
2023-01-13T04:55:31.696Z,88.01
2023-01-13T04:58:05.903Z,87.58
2023-01-13T05:00:32.935Z,87.31
2023-01-13T05:02:59.574Z,87.69
2023-01-13T05:05:27.626Z,87.06
2023-01-13T05:07:54.299Z,86.98
2023-01-13T05:10:23.915Z,87.40
2023-01-13T05:13:10.441Z,86.73
2023-01-13T05:15:57.926Z,86.69
2023-01-13T05:18:24.543Z,86.60
2023-01-13T05:20:50.968Z,86.58
2023-01-13T05:23:35.811Z,86.35
2023-01-13T05:26:02.441Z,86.46
2023-01-13T05:28:33.748Z,86.45
2023-01-13T05:31:00.458Z,86.47
2023-01-13T05:33:26.928Z,86.46
2023-01-13T05:35:53.444Z,86.45
2023-01-13T05:38:19.926Z,86.82
2023-01-13T05:41:04.684Z,86.27
2023-01-13T05:43:32.859Z,86.55
2023-01-13T05:46:05.974Z,86.35
2023-01-13T05:48:38.368Z,85.53
2023-01-13T05:51:07.008Z,85.56
2023-01-13T05:53:33.804Z,85.74
2023-01-13T05:56:03.377Z,85.94
2023-01-13T05:58:29.821Z,86.39
2023-01-13T06:01:01.745Z,86.44
2023-01-13T06:03:28.250Z,86.89
2023-01-13T06:05:58.824Z,86.66
2023-01-13T06:08:25.813Z,86.74
2023-01-13T06:10:52.459Z,86.57
2023-01-13T06:13:19.121Z,86.98
2023-01-13T06:15:45.712Z,86.77
2023-01-13T06:18:12.282Z,87.16
2023-01-13T06:20:38.695Z,87.54
2023-01-13T06:23:09.400Z,87.50
2023-01-13T06:26:08.187Z,86.86
2023-01-13T06:28:34.911Z,87.03
2023-01-13T06:31:05.831Z,87.43
2023-01-13T06:33:45.781Z,86.89
2023-01-13T06:36:17.006Z,86.94
2023-01-13T06:38:47.563Z,87.24
2023-01-13T06:41:14.736Z,87.04
2023-01-13T06:43:41.408Z,87.63
2023-01-13T06:46:08.115Z,86.54
2023-01-13T06:48:35.356Z,86.99
2023-01-13T06:51:04.096Z,86.93
2023-01-13T06:53:31.001Z,87.09
2023-01-13T06:55:57.416Z,87.23
2023-01-13T06:58:23.959Z,86.67
2023-01-13T07:00:51.370Z,87.08
2023-01-13T07:03:18.951Z,88.31
2023-01-13T07:05:52.889Z,89.37
2023-01-13T07:08:19.454Z,91.15
2023-01-13T07:10:46.018Z,91.89
2023-01-13T07:13:31.046Z,91.15
2023-01-13T07:16:00.724Z,91.32
2023-01-13T07:18:31.292Z,91.01
2023-01-13T07:21:00.277Z,90.40
2023-01-13T07:23:28.346Z,90.48
2023-01-13T07:25:59.300Z,89.54
2023-01-13T07:28:27.439Z,88.88
2023-01-13T07:30:54.241Z,89.20
2023-01-13T07:33:21.337Z,89.21
2023-01-13T07:35:59.290Z,88.87
2023-01-13T07:38:26.547Z,88.73
2023-01-13T07:40:53.215Z,88.57
2023-01-13T07:43:32.196Z,88.72
2023-01-13T07:46:00.246Z,88.40
2023-01-13T07:48:27.857Z,88.13
2023-01-13T07:50:55.259Z,89.17
2023-01-13T07:53:24.855Z,90.13
2023-01-13T07:55:55.803Z,90.50
2023-01-13T07:58:22.414Z,89.54
2023-01-13T08:00:49.048Z,89.80
2023-01-13T08:03:15.609Z,91.81
2023-01-13T08:05:42.155Z,91.94
2023-01-13T08:08:08.622Z,93.36
2023-01-13T08:10:35.596Z,94.95
2023-01-13T08:13:21.026Z,95.78
2023-01-13T08:15:53.123Z,95.59
2023-01-13T08:18:22.261Z,94.73
2023-01-13T08:20:49.889Z,96.30
2023-01-13T08:23:17.058Z,98.31
2023-01-13T08:25:43.775Z,98.59
2023-01-13T08:28:10.658Z,98.39
2023-01-13T08:30:37.267Z,98.01
2023-01-13T08:33:07.723Z,99.04
2023-01-13T08:35:39.454Z,100.00
2023-01-13T08:38:06.169Z,100.00
2023-01-13T08:40:33.146Z,100.00
2023-01-13T08:42:59.922Z,100.00
2023-01-13T08:45:26.474Z,100.00
2023-01-13T08:47:52.794Z,100.00
2023-01-13T08:50:19.692Z,100.00
2023-01-13T08:52:46.128Z,100.00
2023-01-13T08:55:12.555Z,100.00
2023-01-13T08:57:38.894Z,100.00
2023-01-13T09:00:06.997Z,100.00
2023-01-13T09:02:33.525Z,100.00
2023-01-13T09:05:04.603Z,100.00
2023-01-13T09:07:31.245Z,100.00
2023-01-13T09:09:57.806Z,100.00
2023-01-13T09:12:42.937Z,100.00
2023-01-13T09:15:09.987Z,100.00
2023-01-13T09:17:36.335Z,99.29
2023-01-13T09:20:02.686Z,96.58
2023-01-13T09:22:29.231Z,97.08
2023-01-13T09:24:55.773Z,97.08
2023-01-13T09:27:23.506Z,96.93
2023-01-13T09:29:49.988Z,98.42
2023-01-13T09:32:16.340Z,99.49
2023-01-13T09:35:00.986Z,97.50
2023-01-13T09:37:28.337Z,96.90
2023-01-13T09:39:54.789Z,96.21
2023-01-13T09:42:47.461Z,95.11
2023-01-13T09:45:22.032Z,94.21
2023-01-13T09:48:06.743Z,94.71
2023-01-13T09:50:51.863Z,92.87
2023-01-13T09:53:23.405Z,91.09
2023-01-13T09:55:49.906Z,91.56
2023-01-13T09:58:18.051Z,91.61
2023-01-13T10:01:03.041Z,92.71
2023-01-13T10:03:30.809Z,94.13
2023-01-13T10:06:00.141Z,94.19
2023-01-13T10:08:32.629Z,94.94
2023-01-13T10:11:00.295Z,95.27
2023-01-13T10:13:31.282Z,96.27
2023-01-13T10:16:16.131Z,96.60
2023-01-13T10:18:51.594Z,96.95
2023-01-13T10:21:27.066Z,96.89
2023-01-13T10:24:07.145Z,96.69
2023-01-13T10:27:03.041Z,96.42
2023-01-13T10:29:31.014Z,97.14
2023-01-13T10:31:59.520Z,98.21
2023-01-13T10:34:27.197Z,100.00
2023-01-13T10:37:02.970Z,100.00
2023-01-13T10:39:38.976Z,100.00
2023-01-13T10:42:06.264Z,100.00
2023-01-13T10:44:45.857Z,100.00
2023-01-13T10:47:19.549Z,100.00
2023-01-13T10:49:58.277Z,100.00
2023-01-13T10:52:33.552Z,100.00
2023-01-13T10:55:01.033Z,100.00
2023-01-13T10:57:28.561Z,100.00
2023-01-13T10:59:56.212Z,100.00
2023-01-13T11:02:34.120Z,100.00
2023-01-13T11:05:18.446Z,100.00
2023-01-13T11:07:52.386Z,100.00
2023-01-13T11:10:18.837Z,100.00
2023-01-13T11:13:10.692Z,99.76
2023-01-13T11:15:43.659Z,100.00
2023-01-13T11:18:15.141Z,99.87
2023-01-13T11:20:46.273Z,98.83
2023-01-13T11:23:46.208Z,100.00
2023-01-13T11:26:21.621Z,100.00
2023-01-13T11:28:55.874Z,100.00
2023-01-13T11:31:50.089Z,99.49
2023-01-13T11:34:39.288Z,99.68
2023-01-13T11:37:17.840Z,98.62
2023-01-13T11:40:06.068Z,100.00
2023-01-13T11:42:36.624Z,99.88
2023-01-13T11:45:18.375Z,98.71
2023-01-13T11:47:51.058Z,97.64
2023-01-13T11:50:50.934Z,98.35
2023-01-13T11:53:30.783Z,100.00
2023-01-13T11:56:29.543Z,96.81
2023-01-13T11:59:05.106Z,96.94
2023-01-13T12:02:13.727Z,94.70
2023-01-13T12:04:59.126Z,92.34
2023-01-13T12:07:53.379Z,92.02
2023-01-13T12:10:44.448Z,91.46
2023-01-13T12:13:48.180Z,88.61
2023-01-13T12:16:30.154Z,88.93
2023-01-13T12:19:07.758Z,89.26
2023-01-13T12:21:42.481Z,89.42
2023-01-13T12:24:31.143Z,85.67
2023-01-13T12:27:12.852Z,84.57
2023-01-13T12:29:39.893Z,84.48
2023-01-13T12:32:15.799Z,84.12
2023-01-13T12:35:16.892Z,82.73
2023-01-13T12:38:28.652Z,82.35
2023-01-13T12:41:32.450Z,83.66
2023-01-13T12:44:17.884Z,80.86
2023-01-13T12:46:58.879Z,80.82
2023-01-13T12:49:28.152Z,80.09
2023-01-13T12:51:54.523Z,79.07
2023-01-13T12:54:32.881Z,80.25
2023-01-13T12:57:00.224Z,80.55
2023-01-13T12:59:26.641Z,79.92
2023-01-13T13:02:11.892Z,81.21
2023-01-13T13:04:51.730Z,80.21
2023-01-13T13:07:30.249Z,81.87
2023-01-13T13:10:05.200Z,78.40
2023-01-13T13:12:50.198Z,79.79
2023-01-13T13:15:22.860Z,79.61
2023-01-13T13:18:08.607Z,78.57
2023-01-13T13:20:55.604Z,79.63
2023-01-13T13:23:37.765Z,79.03
2023-01-13T13:26:17.384Z,79.67
2023-01-13T13:28:57.338Z,80.21
2023-01-13T13:31:35.989Z,80.32
2023-01-13T13:34:13.200Z,80.57
2023-01-13T13:36:58.573Z,81.25
2023-01-13T13:39:47.401Z,80.29
2023-01-13T13:42:55.879Z,81.63
2023-01-13T13:45:43.792Z,81.72
2023-01-13T13:48:28.059Z,82.86
2023-01-13T13:51:02.218Z,82.17
2023-01-13T13:53:34.187Z,83.59
2023-01-13T13:56:03.948Z,85.06
2023-01-13T13:58:35.468Z,85.92
2023-01-13T14:01:04.337Z,89.61
2023-01-13T14:03:34.385Z,92.02
2023-01-13T14:06:03.411Z,93.44
2023-01-13T14:08:34.258Z,94.21
2023-01-13T14:11:00.827Z,96.72
2023-01-13T14:13:29.765Z,94.50
2023-01-13T14:16:04.664Z,96.73
2023-01-13T14:18:35.125Z,98.17
2023-01-13T14:21:33.787Z,97.73
2023-01-13T14:24:05.469Z,97.59
2023-01-13T14:26:32.232Z,97.52
2023-01-13T14:29:01.884Z,97.02
2023-01-13T14:31:29.548Z,98.14
2023-01-13T14:33:58.236Z,97.68
2023-01-13T14:36:33.510Z,98.21
2023-01-13T14:39:03.012Z,99.38
2023-01-13T14:41:36.949Z,100.00
2023-01-13T14:44:21.552Z,99.77
2023-01-13T14:46:48.802Z,99.58
2023-01-13T14:49:24.240Z,98.77
2023-01-13T14:51:51.668Z,97.60
2023-01-13T14:54:42.902Z,98.14
2023-01-13T14:57:28.878Z,97.40
2023-01-13T15:00:01.676Z,97.56
2023-01-13T15:02:31.102Z,97.43
2023-01-13T15:05:24.089Z,96.41
2023-01-13T15:08:18.451Z,96.81
2023-01-13T15:10:50.954Z,98.02
2023-01-13T15:13:38.521Z,97.88
2023-01-13T15:16:26.429Z,99.00
2023-01-13T15:18:54.769Z,99.09
2023-01-13T15:21:21.614Z,99.75
2023-01-13T15:23:48.079Z,99.81
2023-01-13T15:26:26.613Z,99.08
2023-01-13T15:28:55.732Z,99.76
2023-01-13T15:31:23.425Z,99.08
2023-01-13T15:33:50.226Z,98.57
2023-01-13T15:36:21.591Z,97.35
2023-01-13T15:38:48.213Z,96.24
2023-01-13T15:41:14.650Z,94.85
2023-01-13T15:43:59.749Z,94.64
2023-01-13T15:46:38.542Z,94.14
2023-01-13T15:49:12.749Z,93.21
2023-01-13T15:51:40.197Z,93.85
2023-01-13T15:54:09.270Z,94.16
2023-01-13T15:56:37.990Z,94.73
2023-01-13T15:59:17.397Z,95.29
2023-01-13T16:01:45.089Z,95.40
2023-01-13T16:04:11.612Z,97.38
2023-01-13T16:06:38.182Z,99.09
2023-01-13T16:09:05.401Z,100.00
2023-01-13T16:11:32.033Z,100.00
2023-01-13T16:13:58.570Z,100.00
2023-01-13T16:16:28.033Z,100.00
2023-01-13T16:18:55.054Z,100.00
2023-01-13T16:21:22.776Z,100.00
2023-01-13T16:23:50.824Z,100.00
2023-01-13T16:26:29.815Z,100.00
2023-01-13T16:28:57.937Z,100.00
2023-01-13T16:31:32.011Z,100.00
2023-01-13T16:34:00.498Z,99.91
2023-01-13T16:36:28.638Z,99.73
2023-01-13T16:38:56.697Z,100.00
2023-01-13T16:41:24.884Z,100.00
2023-01-13T16:43:52.195Z,99.45
2023-01-13T16:46:18.660Z,100.00
2023-01-13T16:48:45.832Z,99.54
2023-01-13T16:51:12.337Z,99.23
2023-01-13T16:53:38.946Z,99.32
2023-01-13T16:56:16.801Z,98.93
2023-01-13T16:58:43.360Z,99.78
2023-01-13T17:01:18.929Z,99.12
2023-01-13T17:03:48.981Z,99.56
2023-01-13T17:06:17.361Z,98.04
2023-01-13T17:08:43.806Z,96.34
2023-01-13T17:11:10.411Z,94.25
2023-01-13T17:13:36.989Z,93.98
2023-01-13T17:16:03.525Z,91.17
2023-01-13T17:18:30.148Z,89.68
2023-01-13T17:20:58.661Z,90.69
2023-01-13T17:23:25.190Z,89.57
2023-01-13T17:25:54.593Z,87.78
2023-01-13T17:28:21.255Z,88.37
2023-01-13T17:34:40.396Z,90.18
2023-01-13T17:37:06.832Z,90.13
2023-01-13T17:39:33.376Z,89.53
2023-01-13T17:41:59.963Z,88.66
2023-01-13T17:44:26.667Z,88.75
2023-01-13T17:46:53.469Z,88.73
2023-01-13T17:53:06.768Z,89.06
2023-01-13T17:55:33.242Z,89.41
2023-01-13T17:57:59.738Z,88.46
2023-01-13T18:00:26.260Z,88.10
2023-01-13T18:02:54.324Z,86.67
2023-01-13T18:05:20.864Z,85.67
2023-01-13T18:07:47.347Z,86.29
2023-01-13T18:10:14.212Z,86.39
2023-01-13T18:12:40.727Z,86.26
2023-01-13T18:15:07.612Z,85.89
2023-01-13T18:17:34.114Z,85.73
2023-01-13T18:20:19.358Z,86.07
2023-01-13T18:23:04.190Z,85.94
2023-01-13T18:25:49.108Z,86.44
2023-01-13T18:28:15.530Z,86.16
2023-01-13T18:30:41.987Z,85.51
2023-01-13T18:33:08.397Z,86.51
2023-01-13T18:35:37.501Z,86.17
2023-01-13T18:38:03.966Z,86.43
2023-01-13T18:40:30.449Z,86.50
2023-01-13T18:42:58.901Z,87.13
2023-01-13T18:45:31.333Z,87.86
2023-01-13T18:48:01.357Z,88.12
2023-01-13T18:50:28.493Z,87.20
2023-01-13T18:52:55.569Z,86.86
2023-01-13T18:55:22.699Z,86.35
2023-01-13T18:57:50.341Z,87.14
2023-01-13T19:00:19.359Z,88.25
2023-01-13T19:02:47.325Z,87.26
2023-01-13T19:05:14.315Z,87.33
2023-01-13T19:07:40.856Z,86.81
2023-01-13T19:10:09.657Z,87.25
2023-01-13T19:12:36.153Z,87.56
2023-01-13T19:15:02.823Z,87.44
2023-01-13T19:17:34.418Z,87.78
2023-01-13T19:20:01.597Z,88.24
2023-01-13T19:22:30.949Z,88.09
2023-01-13T19:24:58.456Z,86.95
2023-01-13T19:27:27.430Z,87.23
2023-01-13T19:29:57.432Z,87.64
2023-01-13T19:32:24.540Z,87.96
2023-01-13T19:34:51.483Z,87.51
2023-01-13T19:37:19.307Z,87.54
2023-01-13T19:39:45.832Z,87.96
2023-01-13T19:42:31.973Z,87.80
2023-01-13T19:45:16.982Z,87.25
2023-01-13T19:47:45.361Z,87.57
2023-01-13T19:50:13.398Z,88.74
2023-01-13T19:52:39.930Z,88.70
2023-01-13T19:55:06.900Z,88.19
2023-01-13T19:57:33.396Z,88.28
2023-01-13T19:59:59.880Z,88.13
2023-01-13T20:02:31.364Z,87.23
2023-01-13T20:05:00.491Z,88.03
2023-01-13T20:07:29.467Z,88.41
2023-01-13T20:09:56.450Z,88.41
2023-01-13T20:12:24.378Z,88.62
2023-01-13T20:14:51.244Z,89.73
2023-01-13T20:17:19.839Z,90.87
2023-01-13T20:19:46.793Z,90.60
2023-01-13T20:22:13.980Z,89.52
2023-01-13T20:24:40.678Z,89.73
2023-01-13T20:27:07.361Z,89.89
2023-01-13T20:29:34.777Z,90.28
2023-01-13T20:32:01.479Z,89.70
2023-01-13T20:34:28.066Z,89.25
2023-01-13T20:36:54.539Z,87.75
2023-01-13T20:39:24.870Z,86.75
2023-01-13T20:42:10.037Z,84.40
2023-01-13T20:44:36.774Z,84.74
2023-01-13T20:47:03.630Z,84.43
2023-01-13T20:49:30.884Z,84.67
2023-01-13T20:51:58.774Z,84.12
2023-01-13T20:54:25.702Z,84.52
2023-01-13T20:56:52.246Z,85.40
2023-01-13T20:59:18.792Z,85.02
2023-01-13T21:01:45.525Z,84.66
2023-01-13T21:04:12.216Z,85.80
2023-01-13T21:06:38.829Z,86.88
2023-01-13T21:09:05.251Z,87.42
2023-01-13T21:11:50.098Z,88.56
2023-01-13T21:14:41.526Z,88.69
2023-01-13T21:17:29.320Z,89.31
2023-01-13T21:19:56.381Z,89.42
2023-01-13T21:22:22.933Z,90.47
2023-01-13T21:24:49.416Z,90.70
2023-01-13T21:27:15.957Z,90.24
2023-01-13T21:29:44.488Z,92.24
2023-01-13T21:32:11.294Z,93.33
2023-01-13T21:34:38.949Z,93.74
2023-01-13T21:37:05.601Z,93.23
2023-01-13T21:39:32.093Z,94.89
2023-01-13T21:42:16.930Z,95.14
2023-01-13T21:45:01.915Z,95.45
2023-01-13T21:47:46.766Z,94.27
2023-01-13T21:50:15.781Z,95.64
2023-01-13T21:52:45.113Z,97.54
2023-01-13T21:55:28.779Z,98.84
2023-01-13T21:58:01.082Z,99.62
2023-01-13T22:00:30.263Z,100.00
2023-01-13T22:02:58.537Z,100.00
2023-01-13T22:05:25.950Z,100.00
2023-01-13T22:07:53.284Z,100.00
2023-01-13T22:10:22.571Z,100.00
2023-01-13T22:12:55.494Z,100.00
2023-01-13T22:15:25.794Z,100.00
2023-01-13T22:17:53.808Z,100.00
2023-01-13T22:20:22.194Z,100.00
2023-01-13T22:22:49.443Z,100.00
2023-01-13T22:25:17.227Z,100.00
2023-01-13T22:27:44.898Z,100.00
2023-01-13T22:30:17.626Z,100.00
2023-01-13T22:32:45.595Z,100.00
2023-01-13T22:35:15.080Z,100.00
2023-01-13T22:37:43.300Z,100.00
2023-01-13T22:40:11.723Z,100.00
2023-01-13T22:42:39.587Z,100.00
2023-01-13T22:45:09.588Z,100.00
2023-01-13T22:47:36.289Z,100.00
2023-01-13T22:50:03.352Z,100.00
2023-01-13T22:52:30.151Z,100.00
2023-01-13T22:54:56.635Z,100.00
2023-01-13T22:57:24.006Z,100.00
2023-01-13T22:59:50.571Z,100.00
2023-01-13T23:02:17.052Z,99.03
2023-01-13T23:04:43.752Z,98.50
2023-01-13T23:07:10.263Z,98.59
2023-01-13T23:09:36.813Z,98.91
2023-01-13T23:12:03.388Z,98.91
2023-01-13T23:14:29.822Z,100.00
2023-01-13T23:16:56.298Z,100.00
2023-01-13T23:19:23.060Z,100.00
2023-01-13T23:21:49.626Z,100.00
2023-01-13T23:24:16.197Z,100.00
2023-01-13T23:26:42.707Z,100.00
2023-01-13T23:29:11.342Z,99.88
2023-01-13T23:31:37.969Z,100.00
2023-01-13T23:34:04.638Z,100.00
2023-01-13T23:36:31.221Z,100.00
2023-01-13T23:38:59.244Z,100.00
2023-01-13T23:41:27.168Z,100.00
2023-01-13T23:43:59.053Z,100.00
2023-01-13T23:46:26.841Z,100.00
2023-01-13T23:48:55.255Z,100.00
2023-01-13T23:51:22.556Z,100.00
2023-01-13T23:53:50.511Z,100.00
2023-01-13T23:56:22.380Z,100.00
2023-01-13T23:58:49.885Z,100.00
